KFDK/FDK METAR and TAF weather

Enter ICAO airport designator
Station Type Date Time Source
KFDK METAR 2021/10/24 20:47 UTC NOAA

KFDK 242047Z 17006KT 10SM CLR 21/12 A3007


Station Type Date Time Source
KFDK Decoded METAR 2021/10/24 20:47 UTC NOAA

Frederick, Frederick Municipal Airport, MD, United States (KFDK) 39-25-03N 077-22-28W
Oct 24, 2021 - 04:47 PM EDT / 2021.10.24 2047 UTC
Wind: from the S (170 degrees) at 7 MPH (6 KT):0
Visibility: 10 mile(s):0
Sky conditions: clear
Temperature: 69 F (21 C)
Dew Point: 53 F (12 C)
Relative Humidity: 56%
Pressure (altimeter): 30.07 in. Hg (1018 hPa)
ob: KFDK 242047Z 17006KT 10SM CLR 21/12 A3007
cycle: 21

Station Type Date Time Source
KFDK TAF UTC NOAA

Error!

Example: see airport list